Time;durP1;ratioP1;P1;durP2;ratioP2;P2;SDS_P1;SDS_P2;PMS_P1;PMS_P2;Temp;Humidity;BMP_temperature;BMP_pressure;BME280_temperature;BME280_humidity;BME280_pressure;Samples;Min_cycle;Max_cycle;Signal;HPM_P1;HPM_P2
2021/07/08 00:00:09;;;;;;;27.73;12.25;;;;;;;20.40;100.00;96505.56;5039577;28;20197;-70
2021/07/08 00:02:36;;;;;;;24.42;13.60;;;;;;;20.27;100.00;96509.28;5039347;28;20240;-70
2021/07/08 00:05:07;;;;;;;23.10;13.23;;;;;;;20.38;100.00;96515.72;5039700;28;20220;-70
2021/07/08 00:07:33;;;;;;;20.27;12.75;;;;;;;20.27;100.00;96516.50;5039362;28;20205;-70
2021/07/08 00:10:00;;;;;;;20.65;13.32;;;;;;;20.42;99.80;96523.03;5039102;28;20209;-70
2021/07/08 00:12:26;;;;;;;25.48;13.88;;;;;;;20.28;99.63;96529.66;5044117;28;20197;-70
2021/07/08 00:14:53;;;;;;;31.50;13.73;;;;;;;20.38;98.95;96537.94;5043490;28;20708;-70
2021/07/08 00:17:21;;;;;;;28.42;13.57;;;;;;;20.41;99.15;96553.53;5043060;28;20204;-70
2021/07/08 00:19:47;;;;;;;25.70;13.52;;;;;;;20.37;100.00;96565.75;5042957;28;20228;-70
2021/07/08 00:22:14;;;;;;;31.95;14.40;;;;;;;20.35;100.00;96577.72;5043672;28;20224;-70
2021/07/08 00:24:40;;;;;;;28.42;14.77;;;;;;;20.23;100.00;96576.88;5044445;28;20216;-70
2021/07/08 00:27:07;;;;;;;23.85;13.90;;;;;;;20.22;100.00;96567.22;5042803;28;21242;-70
2021/07/08 00:29:34;;;;;;;21.98;13.23;;;;;;;20.24;100.00;96567.81;5043288;28;20229;-70
2021/07/08 00:32:01;;;;;;;26.33;14.30;;;;;;;20.43;100.00;96566.69;5043720;28;20197;-70
2021/07/08 00:34:29;;;;;;;27.17;14.57;;;;;;;20.51;100.00;96561.81;5044424;28;20212;-70
2021/07/08 00:36:55;;;;;;;26.67;14.68;;;;;;;20.34;100.00;96562.69;5042476;28;20209;-70
2021/07/08 00:39:21;;;;;;;28.33;14.13;;;;;;;20.43;100.00;96566.69;5041521;28;20343;-70
2021/07/08 00:41:48;;;;;;;26.23;13.77;;;;;;;20.35;100.00;96564.34;5040953;28;20225;-70
2021/07/08 00:44:14;;;;;;;28.77;15.85;;;;;;;20.09;100.00;96559.38;5042331;28;20200;-70
2021/07/08 00:46:42;;;;;;;33.45;16.20;;;;;;;20.09;100.00;96563.94;5042280;28;20209;-70
2021/07/08 00:49:08;;;;;;;32.08;16.20;;;;;;;20.16;100.00;96565.44;5041173;28;20736;-70
2021/07/08 00:51:36;;;;;;;29.25;16.77;;;;;;;20.29;100.00;96560.72;5042292;28;20205;-70
2021/07/08 00:54:02;;;;;;;33.55;17.73;;;;;;;20.14;100.00;96554.16;5041568;28;21222;-70
2021/07/08 00:56:34;;;;;;;32.60;17.63;;;;;;;20.09;100.00;96554.03;5040690;28;20201;-70
2021/07/08 00:59:06;;;;;;;37.88;20.20;;;;;;;20.00;100.00;96558.06;5040478;28;20347;-71
2021/07/08 01:01:33;;;;;;;35.42;18.92;;;;;;;20.12;100.00;96553.56;5041380;28;20778;-71
2021/07/08 01:04:02;;;;;;;36.30;19.45;;;;;;;20.28;100.00;96553.72;5041602;28;20287;-71
2021/07/08 01:06:28;;;;;;;36.47;19.67;;;;;;;20.04;100.00;96553.91;5041755;28;20208;-70
2021/07/08 01:08:57;;;;;;;38.05;19.50;;;;;;;20.04;100.00;96556.56;5041048;28;20244;-70
2021/07/08 01:11:25;;;;;;;38.65;19.73;;;;;;;20.02;100.00;96558.69;5041410;28;20201;-70
2021/07/08 01:13:52;;;;;;;38.92;19.35;;;;;;;20.13;100.00;96568.59;5040584;28;20205;-70
2021/07/08 01:16:18;;;;;;;44.45;20.35;;;;;;;20.10;100.00;96570.88;5040502;28;20212;-71
2021/07/08 01:18:45;;;;;;;36.10;18.95;;;;;;;20.26;100.00;96561.19;5040224;28;20229;-70
2021/07/08 01:21:23;;;;;;;38.92;20.15;;;;;;;20.17;100.00;96547.53;5039577;28;20202;-71
2021/07/08 01:23:50;;;;;;;45.47;21.23;;;;;;;19.78;100.00;96550.72;5039802;28;20197;-71
2021/07/08 01:26:17;;;;;;;44.83;21.02;;;;;;;19.66;100.00;96547.19;5039775;28;20197;-71
2021/07/08 01:28:44;;;;;;;48.65;20.23;;;;;;;19.85;100.00;96541.56;5039203;28;20225;-71
2021/07/08 01:31:10;;;;;;;42.42;20.80;;;;;;;20.06;100.00;96537.59;5039472;28;20201;-71
2021/07/08 01:33:37;;;;;;;46.42;22.15;;;;;;;20.20;100.00;96532.66;5039624;28;20855;-71
2021/07/08 01:36:04;;;;;;;44.55;21.02;;;;;;;20.21;100.00;96542.31;5040429;28;20205;-71
2021/07/08 01:38:32;;;;;;;46.50;21.60;;;;;;;20.23;100.00;96528.72;5039971;28;20235;-71
2021/07/08 01:40:59;;;;;;;44.38;20.63;;;;;;;20.08;100.00;96520.28;5040267;28;20208;-71
2021/07/08 01:43:25;;;;;;;45.67;20.70;;;;;;;20.19;100.00;96511.47;5040290;28;20595;-71
2021/07/08 01:45:52;;;;;;;42.28;20.38;;;;;;;20.12;100.00;96497.38;5041168;28;20201;-71
2021/07/08 01:48:18;;;;;;;42.88;20.55;;;;;;;20.10;100.00;96494.13;5040574;28;20217;-71
2021/07/08 01:50:45;;;;;;;33.33;17.90;;;;;;;20.10;100.00;96502.16;5040374;28;20208;-70
2021/07/08 01:53:11;;;;;;;42.83;21.52;;;;;;;20.07;100.00;96499.91;5040499;28;20196;-70
2021/07/08 01:55:39;;;;;;;38.25;19.67;;;;;;;20.12;100.00;96502.72;5040879;28;20248;-70
2021/07/08 01:58:06;;;;;;;35.85;18.08;;;;;;;19.96;100.00;96487.34;5039957;28;20229;-70
2021/07/08 02:00:32;;;;;;;34.08;18.05;;;;;;;19.83;100.00;96484.84;5040562;28;20692;-70
2021/07/08 02:02:59;;;;;;;34.42;18.73;;;;;;;19.91;100.00;96502.44;5040833;28;20221;-70
2021/07/08 02:05:25;;;;;;;38.72;18.27;;;;;;;20.09;100.00;96508.53;5040238;28;20220;-70
2021/07/08 02:07:52;;;;;;;30.33;17.95;;;;;;;19.98;100.00;96517.34;5039183;28;20224;-70
2021/07/08 02:10:19;;;;;;;33.45;17.40;;;;;;;20.30;100.00;96508.84;5039993;28;20201;-70
2021/07/08 02:12:50;;;;;;;33.45;17.23;;;;;;;20.31;100.00;96498.94;5039385;28;20205;-70
2021/07/08 02:15:16;;;;;;;31.73;17.13;;;;;;;20.15;100.00;96510.31;5039134;28;20205;-70
2021/07/08 02:17:43;;;;;;;28.83;16.92;;;;;;;20.35;100.00;96506.28;5039087;28;20209;-70
2021/07/08 02:20:13;;;;;;;31.23;16.80;;;;;;;20.34;100.00;96504.66;5039259;28;20205;-70
2021/07/08 02:22:39;;;;;;;27.55;16.23;;;;;;;20.12;100.00;96502.72;5039339;28;20229;-71
2021/07/08 02:25:08;;;;;;;28.83;16.15;;;;;;;20.27;100.00;96495.09;5039736;28;20193;-71
2021/07/08 02:27:36;;;;;;;32.55;16.52;;;;;;;20.21;100.00;96493.31;5039685;28;20205;-71
2021/07/08 02:30:07;;;;;;;32.95;17.20;;;;;;;20.31;100.00;96496.25;5036599;28;20221;-71
2021/07/08 02:32:33;;;;;;;36.10;18.02;;;;;;;20.20;100.00;96497.88;5039255;28;20209;-71
2021/07/08 02:35:00;;;;;;;27.27;16.27;;;;;;;20.03;100.00;96490.72;5039596;28;20204;-71
2021/07/08 02:37:26;;;;;;;30.65;17.80;;;;;;;20.10;100.00;96472.72;5042057;28;20880;-70
2021/07/08 02:39:53;;;;;;;37.60;18.40;;;;;;;19.90;100.00;96464.13;5042425;28;20215;-70
2021/07/08 02:42:19;;;;;;;33.75;17.20;;;;;;;19.63;100.00;96448.72;5041308;28;20224;-70
2021/07/08 02:44:46;;;;;;;33.20;17.60;;;;;;;19.77;100.00;96442.13;5041225;28;20653;-70
2021/07/08 02:47:14;;;;;;;33.15;17.92;;;;;;;19.68;100.00;96443.50;5039403;28;20201;-70
2021/07/08 02:49:40;;;;;;;30.58;15.43;;;;;;;19.54;100.00;96444.75;5038404;28;20240;-71
2021/07/08 02:52:07;;;;;;;24.27;13.43;;;;;;;19.78;100.00;96449.09;5040168;28;20205;-70
2021/07/08 02:54:33;;;;;;;26.58;13.15;;;;;;;19.72;100.00;96448.16;5039124;28;20212;-70
2021/07/08 02:57:00;;;;;;;20.70;12.40;;;;;;;19.91;100.00;96436.38;5038868;28;20212;-70
2021/07/08 02:59:27;;;;;;;22.02;12.23;;;;;;;19.87;100.00;96429.00;5039241;28;20229;-70
2021/07/08 03:01:53;;;;;;;24.58;11.52;;;;;;;19.83;100.00;96428.66;5040344;28;20197;-70
2021/07/08 03:04:21;;;;;;;22.38;13.27;;;;;;;19.78;100.00;96428.53;5039835;28;21081;-70
2021/07/08 03:06:47;;;;;;;21.88;12.05;;;;;;;19.58;100.00;96432.53;5040469;28;20224;-70
2021/07/08 03:09:14;;;;;;;21.00;12.57;;;;;;;19.52;100.00;96446.81;5040899;28;20244;-70
2021/07/08 03:11:40;;;;;;;22.60;11.63;;;;;;;19.28;100.00;96458.44;5041814;28;20212;-70
2021/07/08 03:14:07;;;;;;;19.67;11.88;;;;;;;19.49;100.00;96463.31;5041323;28;20198;-70
2021/07/08 03:16:34;;;;;;;23.45;12.10;;;;;;;19.47;100.00;96467.25;5040527;28;20209;-70
2021/07/08 03:19:00;;;;;;;21.30;11.18;;;;;;;19.62;100.00;96471.94;5040990;28;20225;-70
2021/07/08 03:21:28;;;;;;;17.20;11.02;;;;;;;19.60;100.00;96468.72;5041547;28;20205;-70
2021/07/08 03:23:54;;;;;;;17.38;10.95;;;;;;;19.54;100.00;96478.66;5040998;28;20221;-70
2021/07/08 03:26:21;;;;;;;17.02;10.20;;;;;;;19.68;100.00;96475.59;5041226;28;20232;-70
2021/07/08 03:28:47;;;;;;;16.60;9.80;;;;;;;19.72;100.00;96477.56;5040793;28;20272;-70
2021/07/08 03:31:14;;;;;;;18.08;10.57;;;;;;;19.73;100.00;96475.75;5040403;28;20197;-70
2021/07/08 03:33:41;;;;;;;15.23;9.70;;;;;;;19.63;100.00;96484.28;5041220;28;20198;-70
2021/07/08 03:36:07;;;;;;;12.55;8.52;;;;;;;19.69;100.00;96491.41;5041541;28;20209;-70
2021/07/08 03:38:35;;;;;;;12.43;8.15;;;;;;;19.89;100.00;96499.94;5040214;28;20244;-70
2021/07/08 03:41:02;;;;;;;11.82;7.85;;;;;;;19.77;100.00;96501.78;5041130;28;20204;-70
2021/07/08 03:43:29;;;;;;;12.10;7.05;;;;;;;19.82;100.00;96515.28;5041223;28;20248;-70
2021/07/08 03:45:55;;;;;;;12.40;7.95;;;;;;;19.79;100.00;96518.44;5040043;28;20201;-70
2021/07/08 03:48:22;;;;;;;12.48;7.43;;;;;;;19.79;100.00;96534.47;5040491;28;20217;-70
2021/07/08 03:50:48;;;;;;;11.30;6.30;;;;;;;19.70;100.00;96538.50;5040154;28;20692;-70
2021/07/08 03:53:15;;;;;;;8.65;6.80;;;;;;;19.69;100.00;96555.59;5040810;28;20612;-70
2021/07/08 03:55:43;;;;;;;10.95;6.28;;;;;;;19.66;100.00;96548.00;5040608;28;20220;-70
2021/07/08 03:58:09;;;;;;;9.48;6.80;;;;;;;19.69;100.00;96563.59;5039212;28;20236;-70
2021/07/08 04:00:38;;;;;;;10.13;6.70;;;;;;;19.81;100.00;96555.66;5038261;28;20658;-70
2021/07/08 04:03:07;;;;;;;13.32;6.57;;;;;;;19.75;100.00;96565.34;5038422;28;20220;-70
2021/07/08 04:05:34;;;;;;;15.10;7.40;;;;;;;19.75;100.00;96567.22;5038556;28;20665;-71
2021/07/08 04:08:01;;;;;;;9.98;6.75;;;;;;;19.70;100.00;96564.41;5037269;28;20227;-71
2021/07/08 04:10:28;;;;;;;10.02;8.07;;;;;;;19.83;100.00;96574.94;5037554;28;20197;-70
2021/07/08 04:12:56;;;;;;;14.10;8.57;;;;;;;19.89;100.00;96587.41;5037952;28;20209;-71
2021/07/08 04:15:23;;;;;;;13.70;7.95;;;;;;;19.84;100.00;96577.38;5038636;28;20225;-70
2021/07/08 04:17:50;;;;;;;13.00;7.93;;;;;;;19.76;100.00;96558.97;5036912;28;20234;-71
2021/07/08 04:20:20;;;;;;;15.40;8.23;;;;;;;19.89;100.00;96549.97;5037104;28;20692;-71
2021/07/08 04:22:47;;;;;;;16.50;9.02;;;;;;;19.86;100.00;96535.19;5037699;28;20232;-71
2021/07/08 04:25:15;;;;;;;13.23;8.80;;;;;;;19.82;100.00;96520.63;5037216;28;21305;-71
2021/07/08 04:27:42;;;;;;;15.90;9.52;;;;;;;19.74;100.00;96504.91;5037110;28;20236;-71
2021/07/08 04:30:12;;;;;;;13.85;9.43;;;;;;;19.77;100.00;96504.44;5037589;28;20205;-70
2021/07/08 04:32:39;;;;;;;11.80;7.28;;;;;;;19.47;100.00;96499.31;5038591;28;20217;-70
2021/07/08 04:35:09;;;;;;;9.50;5.78;;;;;;;19.56;100.00;96487.28;5039957;28;20397;-70
2021/07/08 04:37:40;;;;;;;7.38;4.28;;;;;;;19.36;100.00;96489.38;5039718;28;21096;-70
2021/07/08 04:40:09;;;;;;;6.80;4.95;;;;;;;19.37;100.00;96491.03;5041132;28;20201;-70
2021/07/08 04:42:35;;;;;;;7.10;4.97;;;;;;;19.25;100.00;96500.84;5040404;28;20205;-70
2021/07/08 04:45:02;;;;;;;8.48;4.65;;;;;;;19.22;100.00;96507.44;5040948;28;20219;-70
2021/07/08 04:47:31;;;;;;;6.78;4.43;;;;;;;19.07;100.00;96503.53;5040187;28;20213;-70
2021/07/08 04:49:57;;;;;;;7.10;5.22;;;;;;;19.27;100.00;96499.59;5039949;28;20561;-70
2021/07/08 04:52:24;;;;;;;7.55;4.75;;;;;;;19.31;100.00;96505.28;5039726;28;20201;-70
2021/07/08 04:54:50;;;;;;;8.07;5.03;;;;;;;19.34;100.00;96511.00;5040330;28;20212;-70
2021/07/08 04:57:18;;;;;;;9.05;5.20;;;;;;;19.43;100.00;96503.50;5041570;28;20197;-70
2021/07/08 04:59:45;;;;;;;8.13;5.10;;;;;;;19.59;100.00;96498.34;5043635;28;20233;-70
2021/07/08 05:02:11;;;;;;;6.78;4.18;;;;;;;19.58;100.00;96486.81;5044722;28;20205;-70
2021/07/08 05:04:39;;;;;;;6.45;3.47;;;;;;;19.68;100.00;96489.78;5042631;28;20224;-70
2021/07/08 05:07:05;;;;;;;4.28;2.70;;;;;;;19.35;100.00;96501.94;5040198;28;20210;-70
2021/07/08 05:09:32;;;;;;;2.17;1.88;;;;;;;19.58;100.00;96497.50;5041251;28;20236;-69
2021/07/08 05:11:58;;;;;;;3.35;1.90;;;;;;;19.54;100.00;96510.72;5040538;28;20217;-69
2021/07/08 05:14:25;;;;;;;5.47;2.20;;;;;;;19.57;100.00;96509.25;5040403;28;20201;-69
2021/07/08 05:16:51;;;;;;;2.92;1.90;;;;;;;19.59;100.00;96527.75;5041065;28;20696;-70
2021/07/08 05:19:18;;;;;;;3.58;1.77;;;;;;;19.71;100.00;96521.41;5038993;28;20225;-69
2021/07/08 05:21:50;;;;;;;3.17;1.80;;;;;;;19.80;100.00;96525.38;5039905;28;20216;-69
2021/07/08 05:24:20;;;;;;;4.63;2.00;;;;;;;19.76;100.00;96534.91;5040660;28;20652;-69
2021/07/08 05:26:47;;;;;;;4.10;1.67;;;;;;;19.72;100.00;96547.09;5040654;28;20232;-69
2021/07/08 05:29:14;;;;;;;4.53;1.98;;;;;;;19.81;100.00;96545.75;5040465;28;20221;-70
2021/07/08 05:31:40;;;;;;;3.05;1.85;;;;;;;19.83;100.00;96532.97;5040814;28;20209;-69
2021/07/08 05:34:07;;;;;;;1.85;1.52;;;;;;;19.80;100.00;96520.03;5041088;28;20208;-70
2021/07/08 05:36:34;;;;;;;2.97;1.63;;;;;;;19.62;100.00;96528.09;5041315;28;20276;-69
2021/07/08 05:39:03;;;;;;;1.98;1.52;;;;;;;19.74;100.00;96520.97;5040535;28;20247;-70
2021/07/08 05:41:29;;;;;;;4.43;1.50;;;;;;;19.79;100.00;96521.09;5041259;28;20209;-69
2021/07/08 05:43:56;;;;;;;2.33;1.67;;;;;;;19.93;100.00;96519.88;5040688;28;20225;-69
2021/07/08 05:46:22;;;;;;;7.32;1.48;;;;;;;19.69;100.00;96522.66;5040897;28;20220;-70
2021/07/08 05:48:49;;;;;;;3.03;1.50;;;;;;;19.73;100.00;96513.19;5039785;28;20274;-69
2021/07/08 05:51:16;;;;;;;3.47;1.20;;;;;;;19.40;100.00;96518.13;5041074;28;20203;-69
2021/07/08 05:53:42;;;;;;;3.83;1.10;;;;;;;19.52;100.00;96520.84;5040159;28;20201;-69
2021/07/08 05:56:10;;;;;;;2.17;1.35;;;;;;;19.64;100.00;96507.31;5039973;28;21071;-69
2021/07/08 05:58:37;;;;;;;3.22;1.42;;;;;;;19.58;100.00;96494.84;5039329;28;20233;-69
2021/07/08 06:01:03;;;;;;;1.52;1.40;;;;;;;19.72;100.00;96498.97;5040433;28;20227;-70
2021/07/08 06:03:30;;;;;;;3.63;1.50;;;;;;;19.77;100.00;96507.13;5041142;28;20611;-69
2021/07/08 06:05:56;;;;;;;6.00;2.28;;;;;;;19.71;100.00;96486.63;5040671;28;20225;-69
2021/07/08 06:08:23;;;;;;;4.45;1.60;;;;;;;19.73;100.00;96478.41;5039584;28;20229;-69
2021/07/08 06:10:49;;;;;;;2.47;1.73;;;;;;;19.53;100.00;96477.06;5040275;28;20212;-69
2021/07/08 06:13:17;;;;;;;2.50;1.77;;;;;;;19.66;100.00;96481.16;5040461;28;20197;-69
2021/07/08 06:15:43;;;;;;;2.75;1.30;;;;;;;19.62;100.00;96488.00;5039146;28;20227;-69
2021/07/08 06:18:10;;;;;;;1.92;1.50;;;;;;;19.70;100.00;96497.56;5036443;28;20225;-69
2021/07/08 06:20:36;;;;;;;2.83;1.83;;;;;;;19.82;100.00;96499.25;5039457;28;20212;-70
2021/07/08 06:23:03;;;;;;;3.72;1.63;;;;;;;19.95;100.00;96499.09;5038017;28;20204;-69
2021/07/08 06:25:30;;;;;;;3.78;1.77;;;;;;;19.82;99.79;96499.25;5038613;28;20205;-69
2021/07/08 06:27:56;;;;;;;2.22;1.80;;;;;;;19.93;100.00;96511.84;5037724;28;20221;-70
2021/07/08 06:30:24;;;;;;;3.30;1.92;;;;;;;19.89;100.00;96531.25;5037722;28;20201;-70
2021/07/08 06:32:51;;;;;;;3.10;2.08;;;;;;;19.66;100.00;96536.50;5038064;28;20220;-69
2021/07/08 06:35:18;;;;;;;2.35;2.10;;;;;;;19.47;100.00;96552.78;5038519;28;20571;-70
2021/07/08 06:37:45;;;;;;;4.53;2.50;;;;;;;19.45;100.00;96555.69;5037438;28;20319;-70
2021/07/08 06:40:15;;;;;;;4.18;2.70;;;;;;;19.40;100.00;96554.72;5037789;28;20201;-70
2021/07/08 06:42:41;;;;;;;4.47;2.85;;;;;;;19.59;100.00;96562.50;5037138;28;20728;-70
2021/07/08 06:45:12;;;;;;;6.30;2.95;;;;;;;19.40;100.00;96574.25;5037669;28;20221;-69
2021/07/08 06:47:42;;;;;;;3.67;2.28;;;;;;;19.13;100.00;96594.28;5037505;28;20209;-69
2021/07/08 06:50:10;;;;;;;4.07;2.00;;;;;;;19.18;100.00;96601.63;5037655;28;20240;-70
2021/07/08 06:52:37;;;;;;;4.45;2.30;;;;;;;19.18;100.00;96597.13;5037674;28;20212;-71
2021/07/08 06:55:04;;;;;;;3.22;2.25;;;;;;;18.99;100.00;96607.94;5037335;28;20220;-70
2021/07/08 06:57:31;;;;;;;3.00;2.08;;;;;;;19.02;100.00;96586.94;5036529;28;20213;-71
2021/07/08 06:59:57;;;;;;;4.25;2.50;;;;;;;19.17;100.00;96573.25;5038102;28;20205;-70
2021/07/08 07:02:24;;;;;;;2.75;1.92;;;;;;;19.10;100.00;96565.31;5037508;28;20212;-72
2021/07/08 07:04:52;;;;;;;3.78;2.22;;;;;;;18.91;100.00;96573.50;5037201;28;20232;-73
2021/07/08 07:07:19;;;;;;;1.80;1.48;;;;;;;18.79;100.00;96580.59;5037036;28;20209;-72
2021/07/08 07:09:46;;;;;;;3.20;2.35;;;;;;;19.11;100.00;96584.84;5037492;28;20229;-71
2021/07/08 07:12:13;;;;;;;3.17;1.83;;;;;;;19.07;100.00;96589.00;5038207;28;21156;-70
2021/07/08 07:14:39;;;;;;;2.33;1.75;;;;;;;19.00;100.00;96585.53;5040534;28;20708;-70
2021/07/08 07:17:06;;;;;;;4.50;1.70;;;;;;;19.38;100.00;96599.56;5036919;28;20212;-70
2021/07/08 07:19:32;;;;;;;3.42;2.00;;;;;;;19.73;100.00;96601.41;5039315;28;20228;-70
2021/07/08 07:22:01;;;;;;;2.53;1.60;;;;;;;19.86;100.00;96611.94;5040371;28;20229;-70
2021/07/08 07:24:28;;;;;;;5.25;1.92;;;;;;;20.08;100.00;96607.78;5040902;28;20225;-70
2021/07/08 07:26:54;;;;;;;4.32;1.70;;;;;;;20.20;99.21;96590.72;5040543;28;20212;-69
2021/07/08 07:29:21;;;;;;;3.10;1.70;;;;;;;20.19;100.00;96581.06;5039716;28;20220;-69
2021/07/08 07:31:47;;;;;;;5.43;1.73;;;;;;;20.25;100.00;96566.75;5040343;28;20205;-69
2021/07/08 07:34:15;;;;;;;2.03;1.67;;;;;;;20.26;100.00;96571.06;5040177;28;20574;-69
2021/07/08 07:36:41;;;;;;;3.45;1.80;;;;;;;20.18;100.00;96574.88;5039481;28;20205;-69
2021/07/08 07:39:09;;;;;;;2.92;1.88;;;;;;;20.59;98.17;96569.50;5038932;28;20240;-69
2021/07/08 07:41:36;;;;;;;2.90;1.75;;;;;;;20.56;97.94;96577.22;5039935;28;20259;-69
2021/07/08 07:44:02;;;;;;;5.07;1.90;;;;;;;20.36;98.85;96571.34;5039802;28;20221;-69
2021/07/08 07:46:29;;;;;;;2.25;1.88;;;;;;;20.48;98.86;96558.78;5039036;28;20209;-69
2021/07/08 07:48:55;;;;;;;3.60;2.00;;;;;;;20.30;98.90;96566.88;5039198;28;20221;-69
2021/07/08 07:51:22;;;;;;;3.10;1.52;;;;;;;20.36;96.88;96565.97;5039046;28;20220;-69
2021/07/08 07:53:49;;;;;;;2.38;1.60;;;;;;;20.68;94.85;96564.63;5038936;28;20251;-69
2021/07/08 07:56:17;;;;;;;2.58;1.92;;;;;;;20.90;93.24;96566.53;5039397;28;20197;-70
2021/07/08 07:58:43;;;;;;;2.53;1.67;;;;;;;20.77;95.68;96566.75;5038615;28;20923;-69
2021/07/08 08:01:10;;;;;;;2.90;1.75;;;;;;;20.85;93.09;96583.31;5038847;28;20201;-69
2021/07/08 08:03:39;;;;;;;1.95;1.70;;;;;;;20.55;92.97;96589.75;5039268;28;21253;-69
2021/07/08 08:08:49;;;;;;;2.50;2.10;;;;;;;20.19;96.35;96589.09;5038548;28;20235;-69
2021/07/08 08:11:20;;;;;;;2.55;1.98;;;;;;;20.45;96.70;96597.53;5038545;28;20220;-69
2021/07/08 08:13:47;;;;;;;4.13;2.50;;;;;;;20.15;99.49;96614.69;5038746;28;20228;-69
2021/07/08 08:16:14;;;;;;;2.70;2.20;;;;;;;20.12;99.68;96598.25;5034815;28;20198;-69
2021/07/08 08:18:40;;;;;;;3.17;2.28;;;;;;;20.22;98.35;96596.66;5037315;28;20236;-69
2021/07/08 08:21:07;;;;;;;5.05;2.63;;;;;;;20.07;98.59;96612.28;5039401;28;20194;-69
2021/07/08 08:23:34;;;;;;;4.13;2.53;;;;;;;20.29;99.29;96613.44;5038365;28;20216;-69
2021/07/08 08:26:00;;;;;;;3.42;2.50;;;;;;;20.23;99.44;96611.69;5038728;28;20229;-69
2021/07/08 08:28:29;;;;;;;5.03;3.10;;;;;;;20.52;97.49;96597.44;5037639;28;20634;-69
2021/07/08 08:30:55;;;;;;;5.88;2.60;;;;;;;20.54;97.53;96585.44;5038191;28;20209;-69
2021/07/08 08:33:22;;;;;;;5.40;2.50;;;;;;;20.49;97.88;96584.50;5042256;28;20197;-69
2021/07/08 08:35:49;;;;;;;3.47;2.70;;;;;;;20.60;96.94;96594.44;5042919;28;20205;-69
2021/07/08 08:38:15;;;;;;;4.43;2.58;;;;;;;20.57;96.72;96595.72;5042691;28;20225;-69
2021/07/08 08:40:42;;;;;;;5.47;2.95;;;;;;;20.36;96.70;96585.50;5042822;28;20212;-69
2021/07/08 08:43:09;;;;;;;4.47;2.22;;;;;;;20.36;95.83;96588.19;5043351;28;20312;-69
2021/07/08 08:45:37;;;;;;;7.60;3.10;;;;;;;20.48;98.92;96613.16;5043303;28;20736;-69
2021/07/08 08:48:06;;;;;;;5.43;3.22;;;;;;;20.48;100.00;96617.69;5042243;28;20232;-69
2021/07/08 08:50:35;;;;;;;5.63;3.03;;;;;;;20.50;100.00;96594.19;5043124;28;20704;-69
2021/07/08 08:53:02;;;;;;;5.75;3.30;;;;;;;20.28;100.00;96583.19;5043901;28;20207;-69
2021/07/08 08:55:29;;;;;;;4.47;2.75;;;;;;;20.32;100.00;96603.09;5043437;28;20207;-69
2021/07/08 08:57:56;;;;;;;7.13;3.53;;;;;;;20.38;100.00;96606.72;5042630;28;20233;-69
2021/07/08 09:00:47;;;;;;;6.80;3.33;;;;;;;20.50;100.00;96612.94;5043779;28;20211;-70
2021/07/08 09:03:16;;;;;;;5.00;2.88;;;;;;;20.35;100.00;96596.47;5043498;28;20671;-69
2021/07/08 09:05:44;;;;;;;6.70;3.15;;;;;;;20.51;100.00;96585.09;5043366;28;20600;-69
2021/07/08 09:08:18;;;;;;;7.05;3.13;;;;;;;20.51;99.65;96574.41;5042647;28;20240;-69
2021/07/08 09:10:46;;;;;;;4.13;2.70;;;;;;;20.63;98.55;96551.13;5042929;28;20213;-69
2021/07/08 09:13:12;;;;;;;8.32;3.00;;;;;;;20.66;99.85;96527.38;5043020;28;20205;-69
2021/07/08 09:15:39;;;;;;;5.10;2.72;;;;;;;20.42;100.00;96509.66;5043237;28;20205;-69
2021/07/08 09:18:07;;;;;;;4.40;3.10;;;;;;;20.59;100.00;96526.66;5038144;28;20713;-69
2021/07/08 09:20:35;;;;;;;5.82;3.25;;;;;;;20.68;100.00;96562.75;5043025;28;20213;-69
2021/07/08 09:23:13;;;;;;;5.15;3.25;;;;;;;20.43;100.00;96590.78;5043357;28;20205;-69
2021/07/08 09:25:41;;;;;;;4.57;3.10;;;;;;;20.41;100.00;96585.66;5042685;28;20235;-69
2021/07/08 09:28:13;;;;;;;6.93;3.40;;;;;;;20.53;98.84;96580.31;5041294;28;20221;-70
2021/07/08 09:30:41;;;;;;;5.43;3.40;;;;;;;20.42;97.92;96587.28;5042800;28;20209;-69
2021/07/08 09:33:35;;;;;;;7.95;3.97;;;;;;;20.65;100.00;96590.00;5042315;28;20212;-69
2021/07/08 09:36:11;;;;;;;6.50;3.55;;;;;;;20.71;100.00;96590.94;5042415;28;20500;-69
2021/07/08 09:38:38;;;;;;;6.40;3.67;;;;;;;20.58;100.00;96591.16;5042694;28;20228;-69
2021/07/08 09:41:11;;;;;;;6.53;3.55;;;;;;;20.21;100.00;96595.84;5042771;28;20673;-70
2021/07/08 09:43:39;;;;;;;10.60;3.42;;;;;;;20.12;100.00;96607.09;5042413;28;20593;-69
2021/07/08 09:46:06;;;;;;;5.32;3.63;;;;;;;20.03;100.00;96591.59;5041753;28;20713;-69
2021/07/08 09:48:34;;;;;;;8.85;3.90;;;;;;;20.17;100.00;96572.44;5042396;28;20255;-69
2021/07/08 09:51:01;;;;;;;7.25;4.20;;;;;;;19.97;100.00;96563.88;5042501;28;21100;-69
2021/07/08 09:53:29;;;;;;;6.50;4.57;;;;;;;20.12;100.00;96571.50;5042822;28;20205;-70
2021/07/08 09:56:02;;;;;;;7.25;4.32;;;;;;;20.10;100.00;96547.66;5042847;28;20220;-70
2021/07/08 09:58:29;;;;;;;11.13;4.68;;;;;;;19.91;100.00;96518.50;5042476;28;20731;-69
2021/07/08 10:00:56;;;;;;;18.50;6.35;;;;;;;19.93;100.00;96490.44;5042584;28;20665;-70
2021/07/08 10:03:22;;;;;;;9.05;4.90;;;;;;;19.94;100.00;96472.56;5042386;28;20217;-69
2021/07/08 10:05:50;;;;;;;9.55;4.68;;;;;;;19.94;100.00;96446.63;5043118;28;20272;-69
2021/07/08 10:08:21;;;;;;;8.02;4.70;;;;;;;20.15;100.00;96419.34;5041728;28;20220;-69
2021/07/08 10:10:48;;;;;;;6.40;3.42;;;;;;;20.19;100.00;96409.78;5042139;28;20209;-69
2021/07/08 10:13:17;;;;;;;4.30;3.20;;;;;;;20.23;100.00;96393.03;5042131;28;20215;-69
2021/07/08 10:15:46;;;;;;;6.57;2.83;;;;;;;20.38;100.00;96398.72;5040376;28;20197;-69
2021/07/08 10:18:14;;;;;;;3.63;2.38;;;;;;;20.44;100.00;96418.38;5038080;28;20227;-69
2021/07/08 10:20:42;;;;;;;4.00;2.85;;;;;;;20.53;100.00;96433.06;5040823;28;20300;-69
2021/07/08 10:23:11;;;;;;;3.58;2.75;;;;;;;20.26;100.00;96464.84;5041152;28;20590;-69
2021/07/08 10:25:38;;;;;;;3.22;2.13;;;;;;;20.41;100.00;96493.81;5040931;28;20232;-69
2021/07/08 10:28:06;;;;;;;3.50;1.95;;;;;;;20.11;100.00;96538.56;5040444;28;20224;-70
2021/07/08 10:30:33;;;;;;;7.10;2.17;;;;;;;19.94;100.00;96564.31;5040974;28;20216;-69
2021/07/08 10:33:01;;;;;;;4.25;2.50;;;;;;;19.90;100.00;96563.13;5041122;28;20204;-69
2021/07/08 10:35:41;;;;;;;5.85;3.55;;;;;;;19.94;100.00;96560.84;5040883;28;20209;-69
2021/07/08 10:38:32;;;;;;;4.93;3.35;;;;;;;19.78;100.00;96594.34;5039771;28;20221;-69
2021/07/08 10:41:00;;;;;;;7.78;4.10;;;;;;;19.67;100.00;96621.03;5039612;28;20227;-69
2021/07/08 10:43:34;;;;;;;7.82;3.75;;;;;;;19.58;100.00;96627.72;5040199;28;20211;-69
2021/07/08 10:46:02;;;;;;;5.57;3.70;;;;;;;19.89;100.00;96638.25;5038751;28;20224;-69
2021/07/08 10:48:39;;;;;;;5.75;3.88;;;;;;;19.83;100.00;96639.13;5039593;28;20229;-69
2021/07/08 10:51:06;;;;;;;7.18;3.95;;;;;;;20.21;100.00;96654.72;5040567;28;20799;-70
2021/07/08 10:53:37;;;;;;;6.57;3.53;;;;;;;20.37;100.00;96661.31;5040282;28;20665;-69
2021/07/08 10:56:07;;;;;;;5.05;3.30;;;;;;;20.55;100.00;96656.69;5040619;28;20208;-69
2021/07/08 10:58:46;;;;;;;3.92;2.35;;;;;;;20.57;100.00;96656.47;5040000;28;20252;-69
2021/07/08 11:01:41;;;;;;;5.25;2.67;;;;;;;20.90;100.00;96666.50;5039998;28;20284;-69
2021/07/08 11:04:09;;;;;;;3.88;2.55;;;;;;;20.57;100.00;96653.78;5039435;28;20251;-69
2021/07/08 11:06:37;;;;;;;4.75;2.60;;;;;;;20.54;100.00;96627.47;5039921;28;20221;-69
2021/07/08 11:09:07;;;;;;;4.53;2.13;;;;;;;20.71;100.00;96589.09;5038800;28;20232;-69
2021/07/08 11:12:00;;;;;;;6.63;2.10;;;;;;;21.01;100.00;96566.53;5039366;28;20229;-69
2021/07/08 11:14:28;;;;;;;3.95;2.30;;;;;;;20.86;99.39;96589.47;5040403;28;20780;-69
2021/07/08 11:16:58;;;;;;;5.35;2.38;;;;;;;20.91;100.00;96584.25;5038864;28;20666;-69
2021/07/08 11:19:33;;;;;;;5.05;2.42;;;;;;;21.26;98.30;96598.50;5041079;28;20225;-69
2021/07/08 11:22:02;;;;;;;6.60;2.75;;;;;;;20.95;99.44;96617.56;5041084;28;20284;-69
2021/07/08 11:24:32;;;;;;;4.25;3.00;;;;;;;21.22;99.16;96611.53;5041907;28;20211;-69
2021/07/08 11:27:00;;;;;;;2.92;2.50;;;;;;;21.23;98.15;96618.53;5041547;28;20899;-69